ADDS METAR Data INFO
IDs: Format: Raw Decoded Include TAF

Data at: 1457 UTC 11 Dec 2017

KSNS 111453Z 10015KT 10SM CLR 09/M09 A3023 RMK AO2 SLP246 T00891089 53004
KSNS 111353Z 10015KT 10SM CLR 07/M08 A3022 RMK AO2 SLP241 T00721078
KSNS 111253Z AUTO 20004KT 10SM CLR 09/M08 A3022 RMK AO2 SLP244 T00941078
KSNS 111153Z AUTO 11008KT 10SM CLR 09/M08 A3022 RMK AO2 SLP242 T00941078 10117 20083 51005
KSNS 111053Z AUTO 08011KT 10SM CLR 09/M07 A3021 RMK AO2 SLP240 T00891072
KSNS 110953Z AUTO 07010KT 10SM CLR 09/M07 A3022 RMK AO2 SLP241 T00891067
KSNS 110853Z AUTO 06009KT 10SM CLR 09/M07 A3020 RMK AO2 SLP237 T00941067 50003
KSNS 110753Z AUTO 11003KT 10SM CLR 11/M07 A3021 RMK AO2 SLP238 T01111072 402670072
KSNS 110653Z AUTO 10011KT 10SM CLR 12/M07 A3020 RMK AO2 SLP237 T01171067
KSNS 110553Z AUTO 00000KT 10SM CLR 11/M04 A3020 RMK AO2 SLP234 T01061039 10244 20083 51015
KSNS 110453Z AUTO 00000KT 10SM CLR 11/M03 A3019 RMK AO2 SLP232 T01061033
KSNS 110353Z AUTO 00000KT 10SM CLR 10/M04 A3017 RMK AO2 SLP224 T01001044
KSNS 110253Z AUTO 00000KT 10SM CLR 15/M04 A3015 RMK AO2 SLP219 T01501039 53005
KSNS 110153Z AUTO 28003KT 10SM CLR 18/M04 A3014 RMK AO2 SLP216 T01781044
KSNS 110053Z AUTO 06003KT 10SM CLR 21/M06 A3014 RMK AO2 SLP215 T02111056
KSNS 102353Z AUTO 13008KT 10SM CLR 24/M08 A3014 RMK AO2 SLP214 T02441078 10267 20144 56012
KSNS 102253Z AUTO 11011KT 10SM CLR 27/M08 A3014 RMK AO2 SLP214 T02671083
KSNS 102153Z 12010KT 10SM CLR 27/M07 A3015 RMK AO2 SLP218 T02671072
KSNS 102053Z 11010KT 10SM CLR 24/M05 A3017 RMK AO2 SLP226 T02441050 58027
KSNS 101953Z 10009KT 10SM CLR 22/M05 A3021 RMK AO2 SLP237 T02171050
KSNS 101853Z 11011KT 10SM CLR 18/M05 A3024 RMK AO2 SLP247 T01831050
KSNS 101753Z 08012KT 10SM CLR 14/M05 A3025 RMK AO2 SLP253 T01391050 10139 20072 50005
KSNS 101653Z 09012KT 10SM CLR 11/M06 A3025 RMK AO2 SLP254 T01111061
KSNS 101553Z 09012KT 10SM CLR 08/M06 A3024 RMK AO2 SLP250 T00831061
KSNS 101453Z 09012KT 10SM CLR 07/M06 A3024 RMK AO2 SLP248 T00721056 53004
KSNS 101353Z 09012KT 10SM CLR 08/M05 A3023 RMK AO2 SLP246 T00831050
KSNS 101253Z AUTO 07012KT 10SM CLR 09/M06 A3022 RMK AO2 SLP244 T00891056
KSNS 101153Z AUTO 07010KT 10SM CLR 09/M05 A3023 RMK AO2 SLP244 T00941050 10122 20083 58002
KSNS 101053Z AUTO 07012KT 10SM CLR 10/M05 A3023 RMK AO2 SLP245 T01001050
KSNS 100953Z AUTO 08013KT 10SM CLR 10/M05 A3023 RMK AO2 SLP247 T01001050
KSNS 100853Z AUTO 08013KT 10SM CLR 11/M05 A3023 RMK AO2 SLP247 T01061050 58003
KSNS 100753Z AUTO 09013KT 10SM CLR 12/M04 A3023 RMK AO2 SLP247 T01171039 402500083
KSNS 100653Z AUTO 12003KT 10SM CLR 10/M03 A3024 RMK AO2 SLP250 T01001033
KSNS 100553Z AUTO VRB03KT 10SM CLR 11/M02 A3024 RMK AO2 SLP249 T01061017 10239 20089 51009
KSNS 100453Z AUTO 00000KT 10SM CLR 10/M01 A3023 RMK AO2 SLP246 T01001006
KSNS 100353Z AUTO 00000KT 10SM CLR 09/M01 A3022 RMK AO2 SLP244 T00941006